Rock Rapids, Iowa
Current Conditions -  °F | °C
As of 3:54 AM on Sunday 23 Nov 2014 (Local Time) from KLYV Reporting Station
Moderate Fog Moderate Fog  
Wind Chill: 43°   Ceiling: 200
Heat Index: 43°   Visibility: 0mi
Dew Point: 41°   Wind: 3mph
Humidity: 93%   Direction: 200°SSW
Pressure: 29.41"   Gusts: NA
Location:  43.43°N, 96.18°W
Report Text: KLYV 230954Z AUTO 20003KT M1/4SM FG OVC002 06/05 A2941 RMK AO2
Loading
Personal Weather Stations






























Interactive Weather Map New forecast layout! Learn more

10-Day Weather Forecast

Advertisements
Track Severe Weather on mobile